createdAt,value
2022-11-12T00:03:50.221Z,5.90
2022-11-12T00:07:51.994Z,5.80
2022-11-12T00:11:53.598Z,5.80
2022-11-12T00:15:55.191Z,5.80
2022-11-12T00:19:56.847Z,5.80
2022-11-12T00:23:58.481Z,5.70
2022-11-12T00:28:08.424Z,5.60
2022-11-12T00:32:10.224Z,5.50
2022-11-12T00:36:11.911Z,5.40
2022-11-12T00:40:13.578Z,5.30
2022-11-12T00:44:15.206Z,5.20
2022-11-12T00:48:17.153Z,5.10
2022-11-12T00:52:18.853Z,5.00
2022-11-12T00:56:20.610Z,4.80
2022-11-12T01:00:22.398Z,4.80
2022-11-12T01:04:24.086Z,4.70
2022-11-12T01:08:26.119Z,4.60
2022-11-12T01:12:30.267Z,4.60
2022-11-12T01:16:36.584Z,4.60
2022-11-12T01:20:39.248Z,4.60
2022-11-12T01:24:40.927Z,4.60
2022-11-12T01:28:43.294Z,4.50
2022-11-12T01:32:44.922Z,4.50
2022-11-12T01:36:46.548Z,4.40
2022-11-12T01:40:48.201Z,4.40
2022-11-12T01:44:51.936Z,4.30
2022-11-12T01:49:00.636Z,4.30
2022-11-12T01:53:08.163Z,4.30
2022-11-12T01:57:12.157Z,4.20
2022-11-12T02:01:13.876Z,4.20
2022-11-12T02:05:17.458Z,4.10
2022-11-12T02:09:19.397Z,4.10
2022-11-12T02:13:39.875Z,4.10
2022-11-12T02:17:41.649Z,4.10
2022-11-12T02:21:43.773Z,4.00
2022-11-12T02:25:45.414Z,4.00
2022-11-12T02:29:47.140Z,4.10
2022-11-12T02:33:48.756Z,4.00
2022-11-12T02:37:50.407Z,4.00
2022-11-12T02:41:52.095Z,4.00
2022-11-12T02:45:53.721Z,4.00
2022-11-12T02:49:55.343Z,3.90
2022-11-12T02:53:57.137Z,3.90
2022-11-12T02:57:59.290Z,3.90
2022-11-12T03:02:00.897Z,3.90
2022-11-12T03:06:02.580Z,3.90
2022-11-12T03:10:05.625Z,3.90
2022-11-12T03:14:07.270Z,3.90
2022-11-12T03:18:08.944Z,3.90
2022-11-12T03:22:10.610Z,3.90
2022-11-12T03:26:12.214Z,3.90
2022-11-12T03:30:13.896Z,3.80
2022-11-12T03:34:15.523Z,3.80
2022-11-12T03:38:17.162Z,3.80
2022-11-12T03:42:18.791Z,3.80
2022-11-12T03:46:20.432Z,3.70
2022-11-12T03:50:25.434Z,3.70
2022-11-12T03:54:27.333Z,3.70
2022-11-12T03:58:29.257Z,3.70
2022-11-12T04:02:31.025Z,3.70
2022-11-12T04:06:51.493Z,3.70
2022-11-12T04:10:53.290Z,3.70
2022-11-12T04:14:54.902Z,3.70
2022-11-12T04:19:17.506Z,3.70
2022-11-12T04:23:19.154Z,3.70
2022-11-12T04:27:32.747Z,3.70
2022-11-12T04:31:34.465Z,3.60
2022-11-12T04:35:36.122Z,3.60
2022-11-12T04:39:37.762Z,3.60
2022-11-12T04:43:58.255Z,3.60
2022-11-12T04:47:59.904Z,3.60
2022-11-12T04:52:07.424Z,3.50
2022-11-12T04:56:09.042Z,3.50
2022-11-12T05:00:11.553Z,3.50
2022-11-12T05:04:13.338Z,3.50
2022-11-12T05:08:15.023Z,3.40
2022-11-12T05:12:16.628Z,3.40
2022-11-12T05:16:18.340Z,3.40
2022-11-12T05:20:19.978Z,3.30
2022-11-12T05:24:40.519Z,3.30
2022-11-12T05:28:43.016Z,3.30
2022-11-12T05:32:44.672Z,3.30
2022-11-12T05:36:46.312Z,3.30
2022-11-12T05:40:47.968Z,3.30
2022-11-12T05:44:49.618Z,3.20
2022-11-12T05:48:51.255Z,3.20
2022-11-12T05:52:52.870Z,3.20
2022-11-12T05:56:54.521Z,3.20
2022-11-12T06:00:56.149Z,3.20
2022-11-12T06:04:57.769Z,3.20
2022-11-12T06:08:59.478Z,3.20
2022-11-12T06:13:01.109Z,3.20
2022-11-12T06:17:02.767Z,3.10
2022-11-12T06:21:19.273Z,3.10
2022-11-12T06:25:20.875Z,3.10
2022-11-12T06:29:22.563Z,3.00
2022-11-12T06:33:24.290Z,3.00
2022-11-12T06:37:25.890Z,3.00
2022-11-12T06:41:27.581Z,3.00
2022-11-12T06:45:29.197Z,2.90
2022-11-12T06:49:30.839Z,2.90
2022-11-12T06:53:32.583Z,2.90
2022-11-12T06:57:34.807Z,2.90
2022-11-12T07:01:36.497Z,2.90
2022-11-12T07:05:39.002Z,2.90
2022-11-12T07:09:40.650Z,2.90
2022-11-12T07:13:44.411Z,3.00
2022-11-12T07:17:46.618Z,3.00
2022-11-12T07:21:48.346Z,3.10
2022-11-12T07:26:21.012Z,3.10
2022-11-12T07:30:22.667Z,3.10
2022-11-12T07:34:24.697Z,3.20
2022-11-12T07:38:27.550Z,3.20
2022-11-12T07:42:32.300Z,3.30
2022-11-12T07:46:33.929Z,3.40
2022-11-12T07:50:35.587Z,3.40
2022-11-12T07:54:37.257Z,3.50
2022-11-12T07:58:39.065Z,3.60
2022-11-12T08:02:40.740Z,3.70
2022-11-12T08:06:42.710Z,3.70
2022-11-12T08:10:44.442Z,3.80
2022-11-12T08:14:46.093Z,4.00
2022-11-12T08:18:47.745Z,4.10
2022-11-12T08:22:50.113Z,4.20
2022-11-12T08:26:51.765Z,4.30
2022-11-12T08:30:53.433Z,4.50
2022-11-12T08:34:55.094Z,4.60
2022-11-12T08:38:56.702Z,4.80
2022-11-12T08:43:02.710Z,5.00
2022-11-12T08:47:04.366Z,5.10
2022-11-12T08:51:06.720Z,5.40
2022-11-12T08:55:08.933Z,5.90
2022-11-12T08:59:10.536Z,6.20
2022-11-12T09:03:15.622Z,6.60
2022-11-12T09:07:43.270Z,6.90
2022-11-12T09:11:38.904Z,7.40
2022-11-12T09:15:40.899Z,7.60
2022-11-12T09:19:43.179Z,7.90
2022-11-12T09:23:44.893Z,8.00
2022-11-12T09:27:48.560Z,8.30
2022-11-12T09:31:50.985Z,8.60
2022-11-12T09:35:53.899Z,8.80
2022-11-12T09:39:55.523Z,9.20
2022-11-12T09:44:04.266Z,9.40
2022-11-12T09:48:12.413Z,9.70
2022-11-12T09:52:23.007Z,9.90
2022-11-12T09:56:26.196Z,10.10
2022-11-12T10:00:28.670Z,10.30
2022-11-12T10:04:30.314Z,10.60
2022-11-12T10:09:13.140Z,10.80
2022-11-12T10:13:38.794Z,11.00
2022-11-12T10:17:50.584Z,11.00
2022-11-12T10:22:17.427Z,11.30
2022-11-12T10:26:21.912Z,11.30
2022-11-12T10:30:25.613Z,11.40
2022-11-12T10:34:27.242Z,11.50
2022-11-12T10:38:29.308Z,11.50
2022-11-12T10:42:31.142Z,11.60
2022-11-12T10:46:38.340Z,11.70
2022-11-12T10:50:42.947Z,11.70
2022-11-12T10:54:44.829Z,12.00
2022-11-12T10:58:46.481Z,12.10
2022-11-12T11:02:51.255Z,12.20
2022-11-12T11:07:05.864Z,12.40
2022-11-12T11:11:28.875Z,12.50
2022-11-12T11:15:30.548Z,12.80
2022-11-12T11:19:39.758Z,13.00
2022-11-12T11:23:51.174Z,13.10
2022-11-12T11:28:18.854Z,13.20
2022-11-12T11:32:56.891Z,13.20
2022-11-12T11:37:06.350Z,13.40
2022-11-12T11:41:22.193Z,13.60
2022-11-12T11:45:27.489Z,13.60
2022-11-12T11:49:50.080Z,13.70
2022-11-12T11:54:11.753Z,13.90
2022-11-12T11:58:34.847Z,14.10
2022-11-12T12:03:07.196Z,14.10
2022-11-12T12:07:20.509Z,14.10
2022-11-12T12:12:05.345Z,14.20
2022-11-12T12:16:22.182Z,14.20
2022-11-12T12:20:41.877Z,14.30
2022-11-12T12:25:00.643Z,14.40
2022-11-12T12:29:05.464Z,14.40
2022-11-12T12:33:33.329Z,14.30
2022-11-12T12:37:53.496Z,14.30
2022-11-12T12:42:22.481Z,14.40
2022-11-12T12:46:27.651Z,14.60
2022-11-12T12:50:30.006Z,14.60
2022-11-12T12:54:34.640Z,14.50
2022-11-12T12:58:47.123Z,14.50
2022-11-12T13:02:48.865Z,14.50
2022-11-12T13:06:50.631Z,14.50
2022-11-12T13:10:52.482Z,14.60
2022-11-12T13:15:13.573Z,14.60
2022-11-12T13:19:27.506Z,14.80
2022-11-12T13:24:03.347Z,15.00
2022-11-12T13:28:11.952Z,15.20
2022-11-12T13:32:31.328Z,15.70
2022-11-12T13:36:33.113Z,16.20
2022-11-12T13:41:19.307Z,16.20
2022-11-12T13:45:24.817Z,16.60
2022-11-12T13:49:27.050Z,16.90
2022-11-12T13:53:32.952Z,17.10
2022-11-12T13:57:34.638Z,17.20
2022-11-12T14:01:36.380Z,17.20
2022-11-12T14:05:39.302Z,17.20
2022-11-12T14:10:02.840Z,16.80
2022-11-12T14:14:13.266Z,16.60
2022-11-12T14:18:31.784Z,16.20
2022-11-12T14:22:42.325Z,15.70
2022-11-12T14:26:44.374Z,15.40
2022-11-12T14:30:46.075Z,15.20
2022-11-12T14:34:47.697Z,15.00
2022-11-12T14:38:55.873Z,14.70
2022-11-12T14:42:57.549Z,14.50
2022-11-12T14:46:59.802Z,14.30
2022-11-12T14:51:05.716Z,14.10
2022-11-12T14:55:14.586Z,14.00
2022-11-12T14:59:16.896Z,13.90
2022-11-12T15:03:24.341Z,13.70
2022-11-12T15:07:27.579Z,13.50
2022-11-12T15:11:43.597Z,13.30
2022-11-12T15:16:09.907Z,13.10
2022-11-12T15:20:15.376Z,12.90
2022-11-12T15:24:27.138Z,12.70
2022-11-12T15:28:29.012Z,12.50
2022-11-12T15:32:33.543Z,12.40
2022-11-12T15:36:35.165Z,12.20
2022-11-12T15:40:46.048Z,12.00
2022-11-12T15:44:48.045Z,11.80
2022-11-12T15:48:55.611Z,11.50
2022-11-12T15:52:58.249Z,11.20
2022-11-12T15:57:00.072Z,11.00
2022-11-12T16:01:03.272Z,10.80
2022-11-12T16:05:05.773Z,10.60
2022-11-12T16:09:07.431Z,10.40
2022-11-12T16:13:27.192Z,10.20
2022-11-12T16:17:29.973Z,10.10
2022-11-12T16:21:31.644Z,9.80
2022-11-12T16:25:36.281Z,9.70
2022-11-12T16:29:37.902Z,9.60
2022-11-12T16:33:39.521Z,9.40
2022-11-12T16:37:43.301Z,9.30
2022-11-12T16:41:44.921Z,9.20
2022-11-12T16:45:46.605Z,9.00
2022-11-12T16:49:48.223Z,8.90
2022-11-12T16:53:49.888Z,8.80
2022-11-12T16:57:51.697Z,8.80
2022-11-12T17:01:53.603Z,8.60
2022-11-12T17:05:55.280Z,8.50
2022-11-12T17:09:56.998Z,8.40
2022-11-12T17:14:03.523Z,8.30
2022-11-12T17:18:05.335Z,8.20
2022-11-12T17:22:07.063Z,8.10
2022-11-12T17:26:14.871Z,8.00
2022-11-12T17:30:17.208Z,7.90
2022-11-12T17:34:19.056Z,7.80
2022-11-12T17:38:20.709Z,7.80
2022-11-12T17:42:22.349Z,7.70
2022-11-12T17:46:24.506Z,7.70
2022-11-12T17:50:26.198Z,7.60
2022-11-12T17:54:27.891Z,7.50
2022-11-12T17:58:29.618Z,7.50
2022-11-12T18:02:31.246Z,7.40
2022-11-12T18:06:34.421Z,7.40
2022-11-12T18:10:36.466Z,7.30
2022-11-12T18:14:38.150Z,7.20
2022-11-12T18:18:39.788Z,7.20
2022-11-12T18:22:44.905Z,7.20
2022-11-12T18:26:46.846Z,7.10
2022-11-12T18:30:48.534Z,7.20
2022-11-12T18:34:50.599Z,7.00
2022-11-12T18:38:56.022Z,7.00
2022-11-12T18:42:57.654Z,7.00
2022-11-12T18:46:59.245Z,7.10
2022-11-12T18:51:07.149Z,7.20
2022-11-12T18:55:09.350Z,7.40
2022-11-12T18:59:13.695Z,7.70
2022-11-12T19:03:15.382Z,7.90
2022-11-12T19:07:17.121Z,8.20
2022-11-12T19:11:21.569Z,8.50
2022-11-12T19:15:26.737Z,8.60
2022-11-12T19:19:28.898Z,8.70
2022-11-12T19:23:30.804Z,8.70
2022-11-12T19:27:32.464Z,8.70
2022-11-12T19:31:34.433Z,8.60
2022-11-12T19:35:38.844Z,8.70
2022-11-12T19:39:40.462Z,8.60
2022-11-12T19:43:42.539Z,8.40
2022-11-12T19:47:44.221Z,8.30
2022-11-12T19:51:45.840Z,8.30
2022-11-12T19:55:47.493Z,8.30
2022-11-12T19:59:49.128Z,8.10
2022-11-12T20:03:51.127Z,8.10
2022-11-12T20:07:52.799Z,8.00
2022-11-12T20:11:54.445Z,7.90
2022-11-12T20:15:56.353Z,7.80
2022-11-12T20:19:58.031Z,7.70
2022-11-12T20:24:00.702Z,7.70
2022-11-12T20:28:02.355Z,7.60
2022-11-12T20:32:04.182Z,7.70
2022-11-12T20:36:12.063Z,7.60
2022-11-12T20:40:13.781Z,7.60
2022-11-12T20:44:16.291Z,7.60
2022-11-12T20:48:19.978Z,7.60
2022-11-12T20:52:21.695Z,7.50
2022-11-12T20:56:25.548Z,7.50
2022-11-12T21:00:27.188Z,7.50
2022-11-12T21:04:28.983Z,7.40
2022-11-12T21:08:32.161Z,7.40
2022-11-12T21:12:33.759Z,7.40
2022-11-12T21:16:35.358Z,7.30
2022-11-12T21:20:37.270Z,7.20
2022-11-12T21:24:39.006Z,7.20
2022-11-12T21:28:58.758Z,7.10
2022-11-12T21:33:00.358Z,7.10
2022-11-12T21:37:02.149Z,7.00
2022-11-12T21:41:08.078Z,6.90
2022-11-12T21:45:10.739Z,6.90
2022-11-12T21:49:12.351Z,6.80
2022-11-12T21:53:14.810Z,6.70
2022-11-12T21:57:18.906Z,6.70
2022-11-12T22:01:24.814Z,6.70
2022-11-12T22:05:26.719Z,6.60
2022-11-12T22:09:28.326Z,6.50
2022-11-12T22:13:30.860Z,6.40
2022-11-12T22:17:35.438Z,6.40
2022-11-12T22:21:40.126Z,6.30
2022-11-12T22:25:41.863Z,6.30
2022-11-12T22:29:43.466Z,6.20
2022-11-12T22:33:45.602Z,6.20
2022-11-12T22:37:47.211Z,6.10
2022-11-12T22:41:48.867Z,6.00
2022-11-12T22:45:50.468Z,6.00
2022-11-12T22:49:52.124Z,5.90
2022-11-12T22:53:55.692Z,5.90
2022-11-12T22:58:00.170Z,5.80
2022-11-12T23:02:01.772Z,5.80
2022-11-12T23:06:06.242Z,5.70
2022-11-12T23:10:08.457Z,5.70
2022-11-12T23:14:10.182Z,5.70
2022-11-12T23:18:11.911Z,5.70
2022-11-12T23:22:13.530Z,5.60
2022-11-12T23:26:18.945Z,5.60
2022-11-12T23:30:20.612Z,5.60
2022-11-12T23:34:22.326Z,5.60
2022-11-12T23:38:24.001Z,5.60
2022-11-12T23:42:25.681Z,5.60
2022-11-12T23:46:27.448Z,5.60
2022-11-12T23:50:29.145Z,5.60
2022-11-12T23:54:30.756Z,5.60
2022-11-12T23:58:32.484Z,5.50
